TAF EGCC
EGCC 270458Z 2706/2812 35018G35KT 9999 SCT030 TEMPO 2706/2709 7000 -SHRASN BKN012 PROB40 TEMPO 2706/2708 4000 SHRASN BKN006 PROB40 TEMPO 2709/2712 7000 -SHRASN BKN012 BECMG 2714/2717 33015G25KT BECMG 2720/2723 31007KT=
METAR EGCC
WC EGCC
WS EGCC
WV EGCC